Patriot, Ohio
Current Conditions -  °F | °C
As of 5:15 PM on Friday 24 Oct 2014 (Local Time) from K3I2 Reporting Station
Clear Clear  
Wind Chill: 64°   Ceiling: Unl
Heat Index: 64°   Visibility: 10mi
Dew Point: 37°   Wind: 0mph
Humidity: 37%   Direction: NA
Pressure: 30.04"   Gusts: NA
Location:  38.73°N, 82.34°W
Report Text: K3I2 242115Z AUTO 00000KT 10SM CLR 18/03 A3004 RMK AO2
Loading
Personal Weather Stations






























Interactive Weather Map
Tropical Storm Tracking
New forecast layout! Learn more

10-Day Weather Forecast

Advertisements
Track Severe Weather on mobile